createdAt,value
2019-02-16T00:01:46.017Z,12.03
2019-02-16T00:04:13.312Z,12.17
2019-02-16T00:06:40.578Z,11.83
2019-02-16T00:09:07.851Z,13.23
2019-02-16T00:11:38.010Z,12.10
2019-02-16T00:14:05.418Z,12.03
2019-02-16T00:16:34.476Z,11.97
2019-02-16T00:19:01.867Z,11.90
2019-02-16T00:21:29.182Z,10.40
2019-02-16T00:23:56.466Z,10.50
2019-02-16T00:26:23.730Z,10.80
2019-02-16T00:28:51.010Z,9.23
2019-02-16T00:31:18.309Z,10.17
2019-02-16T00:33:45.567Z,10.57
2019-02-16T00:36:12.878Z,9.83
2019-02-16T00:38:40.175Z,8.97
2019-02-16T00:41:07.470Z,8.70
2019-02-16T00:43:34.620Z,8.57
2019-02-16T00:46:01.910Z,9.43
2019-02-16T00:48:29.150Z,8.27
2019-02-16T00:50:56.441Z,8.53
2019-02-16T00:53:23.695Z,7.33
2019-02-16T00:55:50.962Z,8.40
2019-02-16T00:58:18.262Z,7.80
2019-02-16T01:00:45.746Z,8.30
2019-02-16T01:03:13.019Z,7.17
2019-02-16T01:05:40.291Z,7.57
2019-02-16T01:08:07.666Z,7.73
2019-02-16T01:10:34.844Z,7.80
2019-02-16T01:13:02.248Z,7.27
2019-02-16T01:15:29.644Z,7.37
2019-02-16T01:17:56.893Z,8.00
2019-02-16T01:20:24.122Z,7.07
2019-02-16T01:22:51.422Z,8.00
2019-02-16T01:25:18.724Z,7.57
2019-02-16T01:27:45.989Z,6.77
2019-02-16T01:30:13.264Z,6.67
2019-02-16T01:32:40.523Z,7.10
2019-02-16T01:35:08.138Z,7.00
2019-02-16T01:37:35.428Z,6.27
2019-02-16T01:40:02.991Z,6.83
2019-02-16T01:42:30.242Z,6.17
2019-02-16T01:44:59.302Z,7.13
2019-02-16T01:47:26.582Z,7.20
2019-02-16T01:49:53.925Z,7.07
2019-02-16T01:52:21.165Z,7.70
2019-02-16T01:54:48.433Z,7.27
2019-02-16T01:57:15.689Z,7.37
2019-02-16T01:59:42.963Z,7.77
2019-02-16T02:02:10.245Z,7.07
2019-02-16T02:04:37.520Z,8.10
2019-02-16T02:07:04.788Z,6.70
2019-02-16T02:09:32.034Z,6.90
2019-02-16T02:11:59.308Z,7.17
2019-02-16T02:14:26.588Z,7.57
2019-02-16T02:16:53.751Z,7.43
2019-02-16T02:19:20.966Z,6.93
2019-02-16T02:21:48.155Z,6.43
2019-02-16T02:24:15.503Z,6.60
2019-02-16T02:26:42.754Z,7.70
2019-02-16T02:29:09.959Z,7.90
2019-02-16T02:31:37.665Z,7.30
2019-02-16T02:34:05.069Z,8.20
2019-02-16T02:36:32.408Z,7.57
2019-02-16T02:38:59.691Z,7.63
2019-02-16T02:41:26.981Z,7.10
2019-02-16T02:43:54.332Z,8.13
2019-02-16T02:46:21.607Z,8.30
2019-02-16T02:48:48.851Z,7.83
2019-02-16T02:51:16.192Z,8.67
2019-02-16T02:53:43.676Z,8.17
2019-02-16T02:56:11.024Z,9.07
2019-02-16T02:58:38.162Z,9.70
2019-02-16T03:01:05.446Z,8.27
2019-02-16T03:03:32.692Z,8.37
2019-02-16T03:06:01.778Z,9.10
2019-02-16T03:08:29.094Z,8.33
2019-02-16T03:10:56.234Z,8.70
2019-02-16T03:13:23.480Z,8.97
2019-02-16T03:15:50.784Z,8.77
2019-02-16T03:18:17.926Z,8.50
2019-02-16T03:20:45.074Z,8.63
2019-02-16T03:23:14.063Z,7.33
2019-02-16T03:25:44.595Z,7.87
2019-02-16T03:28:45.826Z,8.20
2019-02-16T03:31:50.439Z,7.83
2019-02-16T03:34:22.997Z,8.20
2019-02-16T03:37:40.165Z,7.30
2019-02-16T03:40:07.743Z,7.10
2019-02-16T03:42:34.911Z,7.67
2019-02-16T03:45:02.146Z,7.60
2019-02-16T03:47:29.294Z,7.43
2019-02-16T03:49:56.564Z,7.70
2019-02-16T03:52:23.839Z,7.63
2019-02-16T03:54:52.340Z,7.80
2019-02-16T03:57:19.487Z,8.00
2019-02-16T03:59:46.790Z,7.03
2019-02-16T04:02:14.051Z,7.60
2019-02-16T04:04:41.184Z,7.53
2019-02-16T04:07:08.456Z,7.40
2019-02-16T04:09:35.703Z,7.57
2019-02-16T04:12:03.006Z,7.23
2019-02-16T04:14:30.237Z,7.73
2019-02-16T04:16:57.504Z,7.17
2019-02-16T04:19:24.752Z,6.13
2019-02-16T04:21:52.017Z,7.17
2019-02-16T04:24:19.171Z,7.30
2019-02-16T04:26:46.338Z,6.30
2019-02-16T04:29:13.693Z,6.77
2019-02-16T04:31:40.938Z,6.77
2019-02-16T04:34:09.218Z,5.87
2019-02-16T04:36:36.473Z,5.40
2019-02-16T04:39:05.106Z,6.50
2019-02-16T04:41:32.435Z,6.20
2019-02-16T04:43:59.782Z,7.33
2019-02-16T04:46:27.134Z,6.47
2019-02-16T04:48:55.095Z,6.33
2019-02-16T04:51:22.311Z,7.03
2019-02-16T04:53:49.457Z,6.03
2019-02-16T04:56:16.739Z,6.87
2019-02-16T04:58:45.712Z,5.60
2019-02-16T05:01:13.095Z,5.30
2019-02-16T05:03:40.355Z,5.97
2019-02-16T05:06:07.556Z,5.20
2019-02-16T05:08:34.827Z,6.20
2019-02-16T05:11:02.129Z,5.53
2019-02-16T05:13:29.620Z,5.60
2019-02-16T05:15:56.951Z,5.53
2019-02-16T05:18:24.211Z,5.33
2019-02-16T05:20:51.457Z,5.13
2019-02-16T05:23:18.641Z,6.10
2019-02-16T05:25:45.977Z,5.60
2019-02-16T05:28:13.204Z,6.07
2019-02-16T05:30:40.442Z,5.27
2019-02-16T05:33:07.608Z,5.37
2019-02-16T05:35:34.788Z,5.17
2019-02-16T05:38:02.055Z,4.80
2019-02-16T05:40:29.419Z,5.17
2019-02-16T05:42:56.665Z,5.13
2019-02-16T05:45:23.995Z,5.60
2019-02-16T05:47:51.232Z,5.53
2019-02-16T05:50:18.389Z,5.20
2019-02-16T05:52:53.996Z,5.33
2019-02-16T05:55:14.718Z,5.00
2019-02-16T05:57:41.950Z,5.13
2019-02-16T06:00:10.635Z,5.10
2019-02-16T06:02:37.908Z,4.93
2019-02-16T06:05:05.254Z,5.53
2019-02-16T06:07:32.519Z,4.73
2019-02-16T06:09:59.826Z,5.23
2019-02-16T06:12:27.126Z,5.80
2019-02-16T06:14:54.274Z,4.80
2019-02-16T06:17:21.546Z,4.20
2019-02-16T06:19:48.835Z,4.50
2019-02-16T06:22:16.069Z,4.80
2019-02-16T06:24:43.227Z,4.37
2019-02-16T06:27:10.367Z,4.00
2019-02-16T06:29:37.660Z,4.50
2019-02-16T06:32:04.889Z,3.90
2019-02-16T06:34:32.502Z,4.10
2019-02-16T06:37:01.750Z,4.07
2019-02-16T06:39:29.016Z,4.33
2019-02-16T06:41:56.138Z,4.07
2019-02-16T06:44:23.486Z,3.77
2019-02-16T06:46:50.692Z,5.10
2019-02-16T06:49:17.945Z,4.50
2019-02-16T06:51:45.100Z,4.83
2019-02-16T06:54:12.352Z,5.47
2019-02-16T06:56:57.785Z,4.07
2019-02-16T06:59:25.017Z,4.00
2019-02-16T07:01:52.294Z,4.47
2019-02-16T07:04:19.658Z,5.13
2019-02-16T07:06:46.890Z,4.00
2019-02-16T07:09:14.389Z,4.73
2019-02-16T07:11:41.642Z,4.17
2019-02-16T07:14:08.947Z,4.03
2019-02-16T07:16:43.133Z,4.00
2019-02-16T07:19:17.590Z,4.33
2019-02-16T07:21:44.829Z,3.63
2019-02-16T07:24:12.115Z,4.73
2019-02-16T07:26:39.385Z,4.10
2019-02-16T07:29:06.631Z,3.40
2019-02-16T07:31:33.915Z,3.90
2019-02-16T07:34:01.151Z,3.33
2019-02-16T07:36:28.294Z,3.83
2019-02-16T07:38:55.464Z,3.50
2019-02-16T07:41:22.867Z,3.00
2019-02-16T07:44:27.849Z,4.43
2019-02-16T07:47:14.703Z,6.03
2019-02-16T07:50:07.187Z,7.43
2019-02-16T07:52:52.469Z,6.00
2019-02-16T07:55:26.191Z,5.20
2019-02-16T07:57:59.220Z,4.67
2019-02-16T08:00:35.530Z,5.13
2019-02-16T08:03:21.354Z,5.00
2019-02-16T08:06:06.314Z,5.53
2019-02-16T08:08:43.493Z,3.07
2019-02-16T08:11:29.066Z,3.60
2019-02-16T08:14:09.392Z,4.47
2019-02-16T08:17:02.162Z,3.67
2019-02-16T08:19:47.838Z,4.53
2019-02-16T08:22:52.583Z,4.20
2019-02-16T08:25:28.515Z,4.60
2019-02-16T08:28:30.475Z,4.43
2019-02-16T08:31:15.594Z,4.43
2019-02-16T08:33:55.370Z,6.87
2019-02-16T08:36:45.237Z,5.17
2019-02-16T08:39:47.213Z,4.57
2019-02-16T08:42:31.772Z,4.13
2019-02-16T08:45:27.515Z,4.40
2019-02-16T08:48:04.146Z,4.20
2019-02-16T08:50:59.562Z,4.07
2019-02-16T08:53:49.305Z,4.73
2019-02-16T08:56:14.891Z,4.03
2019-02-16T08:59:19.386Z,4.80
2019-02-16T09:02:06.159Z,4.80
2019-02-16T09:04:51.380Z,4.93
2019-02-16T09:07:33.307Z,4.57
2019-02-16T09:10:28.851Z,4.20
2019-02-16T09:13:07.156Z,4.87
2019-02-16T09:15:44.716Z,4.80
2019-02-16T09:18:30.645Z,5.10
2019-02-16T09:21:15.081Z,4.30
2019-02-16T09:24:05.143Z,4.43
2019-02-16T09:26:52.056Z,4.50
2019-02-16T09:29:53.908Z,5.00
2019-02-16T09:32:52.660Z,5.23
2019-02-16T09:35:39.462Z,4.77
2019-02-16T09:38:25.308Z,3.73
2019-02-16T09:41:10.844Z,3.63
2019-02-16T09:43:57.469Z,3.10
2019-02-16T09:46:43.006Z,2.70
2019-02-16T09:49:28.023Z,2.73
2019-02-16T09:52:32.520Z,2.70
2019-02-16T09:55:17.786Z,2.90
2019-02-16T09:57:53.190Z,2.67
2019-02-16T10:00:38.161Z,2.87
2019-02-16T10:03:17.746Z,2.40
2019-02-16T10:06:03.002Z,2.67
2019-02-16T10:08:45.725Z,2.57
2019-02-16T10:11:32.691Z,2.60
2019-02-16T10:14:19.950Z,2.30
2019-02-16T10:17:12.491Z,2.80
2019-02-16T10:20:05.049Z,2.43
2019-02-16T10:22:42.947Z,2.57
2019-02-16T10:25:18.525Z,2.50
2019-02-16T10:28:11.157Z,1.73
2019-02-16T10:30:43.760Z,2.50
2019-02-16T10:33:23.374Z,2.40
2019-02-16T10:36:13.206Z,2.63
2019-02-16T10:38:58.488Z,3.13
2019-02-16T10:41:47.847Z,2.67
2019-02-16T10:44:33.234Z,2.30
2019-02-16T10:47:19.996Z,2.63
2019-02-16T10:50:16.193Z,1.62
2019-02-16T10:53:11.635Z,1.57
2019-02-16T10:55:54.696Z,1.80
2019-02-16T10:58:35.851Z,1.77
2019-02-16T11:01:25.350Z,2.00
2019-02-16T11:03:56.918Z,1.55
2019-02-16T11:06:48.487Z,1.70
2019-02-16T11:09:35.286Z,1.70
2019-02-16T11:12:36.813Z,1.70
2019-02-16T11:15:24.321Z,1.60
2019-02-16T11:18:04.535Z,1.50
2019-02-16T11:20:51.351Z,1.87
2019-02-16T11:23:31.089Z,2.15
2019-02-16T11:26:23.469Z,2.52
2019-02-16T11:29:11.023Z,2.80
2019-02-16T11:31:56.537Z,2.90
2019-02-16T11:34:45.854Z,2.58
2019-02-16T11:37:44.710Z,2.27
2019-02-16T11:40:20.985Z,2.10
2019-02-16T11:43:22.812Z,2.22
2019-02-16T11:46:09.654Z,2.25
2019-02-16T11:48:53.782Z,2.20
2019-02-16T11:51:39.210Z,2.15
2019-02-16T11:54:19.090Z,2.10
2019-02-16T11:56:59.074Z,1.82
2019-02-16T11:59:44.669Z,1.60
2019-02-16T12:02:39.788Z,1.42
2019-02-16T12:05:30.573Z,1.52
2019-02-16T12:08:25.913Z,1.50
2019-02-16T12:11:14.221Z,1.30
2019-02-16T12:13:53.154Z,2.00
2019-02-16T12:16:29.746Z,1.57
2019-02-16T12:19:10.689Z,1.65
2019-02-16T12:22:09.392Z,1.85
2019-02-16T12:25:14.360Z,2.02
2019-02-16T12:28:06.974Z,1.92
2019-02-16T12:30:50.382Z,1.47
2019-02-16T12:33:41.417Z,1.30
2019-02-16T12:36:30.755Z,1.50
2019-02-16T12:39:23.348Z,1.57
2019-02-16T12:42:08.771Z,1.67
2019-02-16T12:45:07.335Z,1.50
2019-02-16T12:47:59.907Z,1.60
2019-02-16T12:50:45.347Z,1.70
2019-02-16T12:53:31.063Z,1.30
2019-02-16T12:56:14.585Z,1.42
2019-02-16T12:58:58.534Z,1.37
2019-02-16T13:01:45.324Z,1.40
2019-02-16T13:04:30.820Z,1.70
2019-02-16T13:07:12.910Z,1.55
2019-02-16T13:10:02.230Z,2.40
2019-02-16T13:12:49.001Z,1.77
2019-02-16T13:15:34.740Z,1.50
2019-02-16T13:18:28.754Z,1.50
2019-02-16T13:21:15.555Z,1.50
2019-02-16T13:23:58.479Z,1.77
2019-02-16T13:27:03.417Z,1.25
2019-02-16T13:29:52.158Z,1.60
2019-02-16T13:32:34.706Z,1.50
2019-02-16T13:35:22.287Z,1.15
2019-02-16T13:38:05.217Z,1.40
2019-02-16T13:40:38.126Z,0.90
2019-02-16T13:43:14.255Z,1.70
2019-02-16T13:45:55.149Z,1.62
2019-02-16T13:48:45.148Z,1.57
2019-02-16T13:51:34.843Z,1.70
2019-02-16T13:54:10.552Z,1.77
2019-02-16T13:56:57.890Z,1.40
2019-02-16T13:59:47.439Z,1.72
2019-02-16T14:02:49.481Z,1.77
2019-02-16T14:05:31.297Z,1.82
2019-02-16T14:08:11.987Z,1.90
2019-02-16T14:11:04.539Z,1.70
2019-02-16T14:13:38.643Z,1.80
2019-02-16T14:16:13.963Z,1.98
2019-02-16T14:18:41.123Z,2.15
2019-02-16T14:21:08.410Z,1.77
2019-02-16T14:23:35.810Z,2.03
2019-02-16T14:26:03.096Z,2.12
2019-02-16T14:28:30.353Z,1.70
2019-02-16T14:30:57.627Z,1.47
2019-02-16T14:33:24.890Z,1.80
2019-02-16T14:35:52.164Z,1.98
2019-02-16T14:38:48.255Z,1.90
2019-02-16T14:41:15.532Z,1.80
2019-02-16T14:43:42.880Z,1.50
2019-02-16T14:46:10.444Z,1.50
2019-02-16T14:48:37.762Z,1.60
2019-02-16T14:51:05.039Z,1.70
2019-02-16T14:53:32.190Z,2.00
2019-02-16T14:55:59.323Z,1.65
2019-02-16T14:58:26.514Z,1.80
2019-02-16T15:00:53.779Z,1.93
2019-02-16T15:03:20.938Z,1.77
2019-02-16T15:05:48.068Z,2.00
2019-02-16T15:08:15.344Z,2.10
2019-02-16T15:10:42.613Z,2.50
2019-02-16T15:13:09.762Z,2.00
2019-02-16T15:15:37.013Z,1.90
2019-02-16T15:18:04.285Z,2.10
2019-02-16T15:20:31.514Z,2.30
2019-02-16T15:22:58.776Z,2.40
2019-02-16T15:25:25.940Z,2.30
2019-02-16T15:27:53.221Z,2.30
2019-02-16T15:30:20.475Z,3.70
2019-02-16T15:32:47.742Z,3.80
2019-02-16T15:35:14.990Z,2.97
2019-02-16T15:37:42.257Z,2.70
2019-02-16T15:40:09.551Z,2.73
2019-02-16T15:42:36.809Z,2.80
2019-02-16T15:45:05.673Z,2.90
2019-02-16T15:47:32.899Z,3.00
2019-02-16T15:50:00.078Z,2.97
2019-02-16T15:52:27.422Z,2.70
2019-02-16T15:54:54.702Z,1.90
2019-02-16T17:18:12.074Z,2.75
2019-02-16T17:20:58.822Z,3.40
2019-02-16T17:24:03.320Z,3.75
2019-02-16T17:26:50.895Z,4.35
2019-02-16T17:29:55.500Z,4.40
2019-02-16T17:32:29.153Z,3.70
2019-02-16T17:35:24.467Z,3.67
2019-02-16T17:38:19.999Z,4.23
2019-02-16T17:40:53.590Z,4.73
2019-02-16T17:43:43.593Z,4.17
2019-02-16T17:46:38.905Z,4.40
2019-02-16T17:49:17.186Z,4.50
2019-02-16T17:52:02.685Z,4.77
2019-02-16T17:54:39.348Z,4.33
2019-02-16T17:57:34.951Z,3.87
2019-02-16T18:00:11.803Z,4.93
2019-02-16T18:03:04.325Z,3.70
2019-02-16T18:05:53.919Z,4.23
2019-02-16T18:08:39.166Z,5.43
2019-02-16T18:11:16.232Z,8.00
2019-02-16T18:13:54.334Z,10.03
2019-02-16T18:16:46.731Z,9.03
2019-02-16T18:19:22.492Z,8.17
2019-02-16T18:22:04.422Z,9.70
2019-02-16T18:24:49.625Z,11.30
2019-02-16T18:27:34.325Z,12.90
2019-02-16T18:30:30.307Z,13.47
2019-02-16T18:33:15.648Z,10.87
2019-02-16T18:36:01.341Z,10.93
2019-02-16T18:38:56.903Z,11.10
2019-02-16T18:41:42.444Z,10.00
2019-02-16T18:49:41.532Z,5.62
2019-02-16T18:52:22.297Z,6.03
2019-02-16T19:02:26.370Z,4.83
